Time;durP1;ratioP1;P1;durP2;ratioP2;P2;SDS_P1;SDS_P2;PMS_P1;PMS_P2;Temp;Humidity;BMP_temperature;BMP_pressure;BME280_temperature;BME280_humidity;BME280_pressure;Samples;Min_cycle;Max_cycle;Signal;HPM_P1;HPM_P2
2021/07/04 00:01:02;;;;;;;2.08;1.00;;;17.00;66.60;;;;;;5091783;28;20028;-57
2021/07/04 00:03:29;;;;;;;3.30;1.30;;;17.10;66.70;;;;;;5091706;28;20113;-54
2021/07/04 00:05:56;;;;;;;3.20;1.20;;;17.20;67.40;;;;;;5090814;28;20024;-55
2021/07/04 00:08:25;;;;;;;1.83;0.90;;;17.30;65.20;;;;;;5091904;28;20115;-53
2021/07/04 00:11:03;;;;;;;1.05;0.95;;;17.40;70.20;;;;;;5092166;28;20107;-53
2021/07/04 00:13:31;;;;;;;1.50;0.90;;;17.50;64.60;;;;;;5091940;28;20093;-54
2021/07/04 00:16:00;;;;;;;4.13;1.25;;;17.70;63.90;;;;;;5094257;28;20031;-52
2021/07/04 00:18:30;;;;;;;1.20;0.65;;;17.80;64.90;;;;;;5112127;28;20027;-53
2021/07/04 00:20:59;;;;;;;1.38;0.75;;;17.90;65.30;;;;;;5112383;28;20054;-50
2021/07/04 00:23:27;;;;;;;2.35;1.00;;;18.10;61.10;;;;;;5111996;28;20107;-53
2021/07/04 00:25:56;;;;;;;3.92;0.80;;;18.20;60.10;;;;;;5112224;28;20496;-50
2021/07/04 00:28:24;;;;;;;1.30;0.77;;;18.40;66.20;;;;;;5112032;28;20070;-50
2021/07/04 00:30:55;;;;;;;3.35;1.10;;;18.50;60.60;;;;;;5111979;28;20020;-56
2021/07/04 00:33:23;;;;;;;2.42;1.20;;;18.50;61.50;;;;;;5112269;28;20059;-50
2021/07/04 00:35:51;;;;;;;1.25;0.80;;;18.50;65.10;;;;;;5112043;28;20107;-53
2021/07/04 00:38:19;;;;;;;3.72;0.90;;;18.50;62.50;;;;;;5111803;28;20096;-51
2021/07/04 00:40:46;;;;;;;3.00;1.42;;;18.70;60.90;;;;;;5111689;28;20031;-53
2021/07/04 00:43:17;;;;;;;1.55;0.75;;;18.70;63.60;;;;;;5111341;28;20023;-57
2021/07/04 00:45:45;;;;;;;2.38;0.98;;;18.80;62.50;;;;;;5111430;27;20028;-53
2021/07/04 00:48:14;;;;;;;3.70;1.00;;;19.00;63.90;;;;;;5111612;28;20084;-51
2021/07/04 00:50:41;;;;;;;2.40;1.55;;;19.10;63.10;;;;;;5111334;28;20038;-57
2021/07/04 00:53:09;;;;;;;2.08;1.10;;;19.10;58.20;;;;;;5111644;28;20024;-53
2021/07/04 00:55:37;;;;;;;1.65;0.65;;;19.10;60.50;;;;;;5111568;28;20123;-54
2021/07/04 00:58:04;;;;;;;0.82;0.60;;;19.30;62.40;;;;;;5111193;28;20473;-57
2021/07/04 01:00:34;;;;;;;5.03;2.65;;;19.40;61.00;;;;;;5110953;28;20035;-50
2021/07/04 01:03:01;;;;;;;4.00;1.08;;;19.40;59.10;;;;;;5111043;28;20067;-50
2021/07/04 01:05:31;;;;;;;1.10;0.68;;;19.50;60.10;;;;;;5111239;28;20016;-56
2021/07/04 01:08:00;;;;;;;1.35;0.73;;;19.40;58.80;;;;;;5110980;28;20035;-56
2021/07/04 01:10:29;;;;;;;2.20;0.77;;;19.40;62.20;;;;;;5111115;28;20042;-52
2021/07/04 01:12:58;;;;;;;2.03;0.82;;;19.50;57.40;;;;;;5108962;28;20092;-58
2021/07/04 01:15:27;;;;;;;1.50;0.75;;;19.60;61.20;;;;;;5110817;28;20088;-59
2021/07/04 01:17:56;;;;;;;7.03;1.55;;;19.60;60.40;;;;;;5110734;28;20031;-56
2021/07/04 01:20:26;;;;;;;0.95;0.65;;;19.60;59.50;;;;;;5110879;28;20051;-58
2021/07/04 01:23:00;;;;;;;0.85;0.68;;;19.70;59.30;;;;;;5110290;28;20378;-51
2021/07/04 01:25:30;;;;;;;1.00;0.47;;;19.70;62.20;;;;;;5111016;28;20110;-51
2021/07/04 01:27:59;;;;;;;2.50;0.73;;;19.80;58.30;;;;;;5110562;28;20428;-51
2021/07/04 01:30:28;;;;;;;2.20;0.75;;;19.80;59.20;;;;;;5111099;28;20467;-53
2021/07/04 01:32:56;;;;;;;4.00;1.10;;;19.80;56.80;;;;;;5110528;28;20146;-49
2021/07/04 01:35:25;;;;;;;1.05;0.77;;;19.90;61.90;;;;;;5109343;28;20104;-57
2021/07/04 01:37:52;;;;;;;1.90;0.90;;;19.90;60.20;;;;;;5069975;28;20151;-53
2021/07/04 01:40:20;;;;;;;1.50;0.75;;;19.90;62.10;;;;;;5069945;28;20039;-51
2021/07/04 01:42:49;;;;;;;3.70;0.60;;;20.00;61.40;;;;;;5069704;28;20107;-59
2021/07/04 01:45:18;;;;;;;0.98;0.68;;;20.10;58.90;;;;;;5069675;28;20410;-56
2021/07/04 01:47:49;;;;;;;0.73;0.43;;;20.10;58.90;;;;;;5069880;28;20028;-57
2021/07/04 01:50:28;;;;;;;1.92;0.50;;;20.20;61.20;;;;;;5069844;28;20028;-58
2021/07/04 01:52:56;;;;;;;1.50;0.60;;;20.10;61.30;;;;;;5069427;28;20360;-58
2021/07/04 01:55:24;;;;;;;0.47;0.45;;;20.20;59.80;;;;;;5069748;28;20387;-57
2021/07/04 01:57:52;;;;;;;0.55;0.50;;;20.10;61.10;;;;;;5069213;28;20031;-48
2021/07/04 02:00:28;;;;;;;0.85;0.50;;;20.20;61.20;;;;;;5069626;28;20046;-58
2021/07/04 02:03:01;;;;;;;0.80;0.60;;;20.30;58.60;;;;;;5069109;28;20044;-55
2021/07/04 02:05:28;;;;;;;0.75;0.45;;;20.50;56.30;;;;;;5069472;28;20134;-55
2021/07/04 02:07:56;;;;;;;1.77;0.65;;;20.60;58.70;;;;;;5069439;28;20078;-54
2021/07/04 02:10:31;;;;;;;1.85;1.02;;;20.50;60.40;;;;;;5069314;28;20039;-57
2021/07/04 02:12:59;;;;;;;1.65;0.60;;;20.40;60.50;;;;;;5069283;28;20471;-52
2021/07/04 02:15:31;;;;;;;1.52;0.50;;;20.40;60.60;;;;;;5069278;28;20579;-52
2021/07/04 02:18:06;;;;;;;1.52;0.63;;;20.30;54.90;;;;;;5069032;28;20589;-58
2021/07/04 02:20:40;;;;;;;0.88;0.65;;;20.40;55.90;;;;;;5068614;28;20032;-57
2021/07/04 02:23:09;;;;;;;3.42;0.70;;;20.50;59.30;;;;;;5069325;28;20484;-52
2021/07/04 02:25:41;;;;;;;1.17;0.60;;;20.60;60.00;;;;;;5068947;28;20485;-55
2021/07/04 02:28:09;;;;;;;;;;;20.60;57.30;;;;;;5068515;28;20114;-55
2021/07/04 02:30:37;;;;;;;0.73;0.40;;;20.70;56.60;;;;;;5068459;28;20286;-57
2021/07/04 02:33:07;;;;;;;0.75;0.50;;;20.80;60.10;;;;;;5069116;28;20025;-57
2021/07/04 02:35:36;;;;;;;0.90;0.40;;;21.00;54.50;;;;;;5068197;28;20130;-54
2021/07/04 02:38:05;;;;;;;0.52;0.40;;;21.00;59.70;;;;;;5068974;28;20025;-55
2021/07/04 02:40:34;;;;;;;1.35;0.68;;;20.90;57.60;;;;;;5068592;28;20032;-52
2021/07/04 02:43:02;;;;;;;1.38;0.70;;;21.10;53.40;;;;;;5068220;28;20547;-56
2021/07/04 02:45:30;;;;;;;1.35;0.50;;;21.10;56.80;;;;;;5068503;28;20035;-57
2021/07/04 02:47:57;;;;;;;1.83;0.70;;;21.10;57.30;;;;;;5068962;28;20036;-55
2021/07/04 02:50:25;;;;;;;0.95;0.50;;;21.20;56.70;;;;;;5068685;28;20031;-50
2021/07/04 02:52:54;;;;;;;1.23;0.47;;;21.20;58.40;;;;;;5068275;28;20047;-58
2021/07/04 02:55:25;;;;;;;0.85;0.50;;;21.10;58.90;;;;;;5068673;28;20156;-55
2021/07/04 02:57:53;;;;;;;0.85;0.45;;;21.20;58.80;;;;;;5068768;28;20112;-54
2021/07/04 03:00:24;;;;;;;1.35;0.60;;;21.10;59.00;;;;;;5068893;28;20565;-53
2021/07/04 03:02:51;;;;;;;1.50;0.55;;;21.20;54.10;;;;;;5068335;28;20121;-59
2021/07/04 03:05:19;;;;;;;1.90;0.60;;;21.30;58.70;;;;;;5068901;28;20025;-52
2021/07/04 03:07:47;;;;;;;0.80;0.45;;;21.40;54.80;;;;;;5068643;28;20490;-54
2021/07/04 03:10:20;;;;;;;0.40;0.30;;;21.50;56.60;;;;;;5068452;28;20043;-54
2021/07/04 03:12:48;;;;;;;1.15;0.50;;;21.40;57.40;;;;;;5066798;28;20032;-54
2021/07/04 03:15:17;;;;;;;1.48;0.57;;;21.60;57.10;;;;;;5068526;28;20029;-53
2021/07/04 03:17:44;;;;;;;0.80;0.40;;;21.60;56.40;;;;;;5067277;28;20089;-57
2021/07/04 03:20:13;;;;;;;2.85;0.50;;;21.50;55.70;;;;;;5068590;28;20024;-56
2021/07/04 03:22:42;;;;;;;1.08;0.50;;;21.30;54.80;;;;;;5068056;28;20043;-52
2021/07/04 03:25:11;;;;;;;2.00;0.43;;;21.40;55.50;;;;;;5067979;28;20051;-59
2021/07/04 03:27:39;;;;;;;2.38;0.70;;;21.60;56.00;;;;;;5068016;28;20056;-56
2021/07/04 03:30:09;;;;;;;1.30;0.32;;;21.40;56.40;;;;;;5068389;28;20051;-55
2021/07/04 03:32:37;;;;;;;1.35;0.35;;;21.40;56.60;;;;;;5068113;28;20533;-53
2021/07/04 03:35:10;;;;;;;0.85;0.65;;;21.40;54.10;;;;;;5068240;28;20063;-55
2021/07/04 03:37:38;;;;;;;3.28;0.60;;;21.50;55.90;;;;;;5068361;28;20430;-55
2021/07/04 03:40:07;;;;;;;1.63;0.63;;;21.40;55.10;;;;;;5068091;28;20052;-58
2021/07/04 03:42:35;;;;;;;1.58;0.40;;;21.40;56.90;;;;;;5071128;28;20029;-58
2021/07/04 03:45:03;;;;;;;1.30;0.50;;;21.30;56.80;;;;;;5071679;28;20368;-59
2021/07/04 03:47:31;;;;;;;0.30;0.30;;;21.30;56.60;;;;;;5071689;28;20119;-55
2021/07/04 03:49:59;;;;;;;1.52;0.75;;;21.30;56.80;;;;;;5071669;28;20040;-55
2021/07/04 03:52:26;;;;;;;0.52;0.50;;;21.30;55.70;;;;;;5071384;28;20132;-59
2021/07/04 03:54:54;;;;;;;1.05;0.60;;;21.20;56.40;;;;;;5071352;28;20032;-56
2021/07/04 03:57:21;;;;;;;0.68;0.30;;;21.20;57.00;;;;;;5071534;28;20450;-56
2021/07/04 03:59:56;;;;;;;1.70;0.88;;;21.20;56.10;;;;;;5071714;28;20479;-60
2021/07/04 04:02:24;;;;;;;2.38;0.50;;;21.10;52.70;;;;;;5070374;28;20378;-56
2021/07/04 04:04:56;;;;;;;0.98;0.63;;;21.20;54.70;;;;;;5071218;28;20073;-59
2021/07/04 04:07:24;;;;;;;1.08;0.47;;;21.00;55.10;;;;;;5071113;28;20554;-57
2021/07/04 04:09:52;;;;;;;2.45;0.60;;;21.00;53.70;;;;;;5071338;28;20086;-57
2021/07/04 04:12:20;;;;;;;1.58;0.47;;;21.00;54.00;;;;;;5071541;28;20032;-59
2021/07/04 04:14:48;;;;;;;1.65;0.77;;;20.90;55.50;;;;;;5071485;28;20040;-56
2021/07/04 04:17:15;;;;;;;1.67;0.60;;;20.80;57.80;;;;;;5071791;28;20033;-56
2021/07/04 04:19:42;;;;;;;0.68;0.50;;;20.80;55.20;;;;;;5071625;28;20187;-57
2021/07/04 04:22:10;;;;;;;2.15;0.50;;;20.90;56.50;;;;;;5071166;28;20077;-59
2021/07/04 04:24:37;;;;;;;1.10;0.50;;;20.80;56.40;;;;;;5070992;28;20043;-58
2021/07/04 04:27:05;;;;;;;1.27;0.50;;;20.80;57.40;;;;;;5070664;28;20055;-55
2021/07/04 04:29:33;;;;;;;1.17;0.50;;;20.90;57.40;;;;;;5071252;28;20468;-57
2021/07/04 04:32:00;;;;;;;0.35;0.25;;;21.00;56.80;;;;;;5071148;28;20052;-57
2021/07/04 04:34:27;;;;;;;1.23;0.60;;;21.10;55.10;;;;;;5071191;28;20078;-58
2021/07/04 04:36:55;;;;;;;0.98;0.50;;;21.10;56.50;;;;;;5078874;28;20118;-57
2021/07/04 04:39:22;;;;;;;3.25;0.75;;;21.10;55.60;;;;;;5091054;28;20422;-51
2021/07/04 04:41:50;;;;;;;1.33;0.60;;;21.10;56.60;;;;;;5090438;28;20402;-58
2021/07/04 04:44:18;;;;;;;0.90;0.50;;;21.10;55.10;;;;;;5090711;28;20425;-55
2021/07/04 04:46:46;;;;;;;2.72;0.98;;;21.10;55.30;;;;;;5090679;28;20379;-56
2021/07/04 04:49:14;;;;;;;3.58;0.63;;;21.10;54.80;;;;;;5091296;28;20028;-50
2021/07/04 04:51:41;;;;;;;0.75;0.50;;;21.00;53.50;;;;;;5090861;28;20434;-53
2021/07/04 04:54:09;;;;;;;0.68;0.32;;;21.00;53.70;;;;;;5091095;28;20027;-54
2021/07/04 04:56:37;;;;;;;1.70;0.50;;;21.00;56.90;;;;;;5090622;28;20054;-55
2021/07/04 04:59:05;;;;;;;1.35;0.40;;;21.10;56.90;;;;;;5090637;28;20039;-54
2021/07/04 05:01:32;;;;;;;2.05;0.60;;;21.10;56.90;;;;;;5089228;28;20034;-53
2021/07/04 05:04:00;;;;;;;1.52;0.30;;;21.20;56.80;;;;;;5084016;28;20494;-61
2021/07/04 05:06:27;;;;;;;1.25;0.50;;;21.20;57.40;;;;;;5089496;28;20036;-56
2021/07/04 05:08:55;;;;;;;2.90;0.50;;;21.30;55.40;;;;;;5086188;28;20159;-54
2021/07/04 05:11:22;;;;;;;1.52;0.40;;;21.30;56.10;;;;;;5089227;28;20024;-56
2021/07/04 05:14:03;;;;;;;1.30;0.80;;;21.40;51.70;;;;;;5087984;28;20094;-52
2021/07/04 05:16:32;;;;;;;0.20;0.20;;;21.40;52.90;;;;;;5090361;28;20066;-53
2021/07/04 05:19:05;;;;;;;2.03;0.63;;;21.30;53.10;;;;;;5083190;28;20064;-54
2021/07/04 05:21:36;;;;;;;0.98;0.43;;;21.20;53.50;;;;;;5087161;28;20455;-59
2021/07/04 05:24:05;;;;;;;1.02;0.40;;;21.10;54.20;;;;;;5084873;28;20126;-58
2021/07/04 05:26:33;;;;;;;1.27;0.60;;;20.80;53.00;;;;;;5083855;28;20047;-57
2021/07/04 05:29:00;;;;;;;0.25;0.25;;;20.70;55.80;;;;;;5085241;28;20498;-54
2021/07/04 05:31:28;;;;;;;1.67;0.50;;;20.40;56.40;;;;;;5088782;28;20136;-56
2021/07/04 05:33:56;;;;;;;1.02;0.35;;;20.30;57.20;;;;;;5087765;28;20030;-53
2021/07/04 05:36:24;;;;;;;1.08;0.52;;;20.30;58.00;;;;;;5084233;28;20031;-56
2021/07/04 05:38:52;;;;;;;2.05;0.80;;;20.20;58.60;;;;;;5082715;28;20035;-53
2021/07/04 05:41:19;;;;;;;2.00;0.50;;;20.20;57.20;;;;;;5088005;28;20102;-52
2021/07/04 05:43:49;;;;;;;2.17;0.95;;;20.10;58.20;;;;;;5087539;28;20119;-54
2021/07/04 05:46:16;;;;;;;1.30;0.50;;;20.10;53.00;;;;;;5089202;28;20725;-54
2021/07/04 05:48:47;;;;;;;2.10;1.00;;;20.10;53.50;;;;;;5082612;28;20046;-51
2021/07/04 05:51:14;;;;;;;0.43;0.30;;;19.90;51.20;;;;;;5086572;28;20036;-55
2021/07/04 05:53:42;;;;;;;1.20;0.40;;;19.80;52.30;;;;;;5088088;28;20027;-59
2021/07/04 05:56:09;;;;;;;0.90;0.55;;;19.60;54.80;;;;;;5076998;28;20030;-58
2021/07/04 05:58:37;;;;;;;3.10;0.70;;;19.40;58.40;;;;;;5077627;28;20122;-60
2021/07/04 06:01:05;;;;;;;2.83;0.60;;;19.20;56.00;;;;;;5077228;28;20139;-55
2021/07/04 06:03:32;;;;;;;1.02;0.40;;;19.00;56.10;;;;;;5075035;28;20058;-57
2021/07/04 06:06:00;;;;;;;2.08;0.63;;;18.90;57.60;;;;;;5088033;28;20037;-57
2021/07/04 06:08:27;;;;;;;1.13;0.60;;;18.70;59.00;;;;;;5077525;28;20039;-55
2021/07/04 06:10:58;;;;;;;1.42;0.45;;;18.60;56.70;;;;;;5073628;28;20060;-56
2021/07/04 06:13:26;;;;;;;0.60;0.32;;;18.40;61.30;;;;;;5068694;28;20105;-52
2021/07/04 06:15:53;;;;;;;1.13;0.52;;;18.30;60.40;;;;;;5069824;28;20027;-60
2021/07/04 06:18:20;;;;;;;0.95;0.50;;;18.20;60.60;;;;;;5081412;28;20024;-57
2021/07/04 06:20:48;;;;;;;1.35;0.63;;;18.00;63.50;;;;;;5070719;28;20036;-56
2021/07/04 06:23:15;;;;;;;0.90;0.50;;;17.80;59.50;;;;;;5083118;28;20032;-52
2021/07/04 06:25:42;;;;;;;2.45;0.50;;;17.80;63.30;;;;;;5075345;28;20028;-49
2021/07/04 06:28:10;;;;;;;2.13;0.45;;;17.70;64.60;;;;;;5084512;28;20052;-55
2021/07/04 06:30:37;;;;;;;2.60;0.70;;;17.60;63.90;;;;;;5084652;28;20031;-56
2021/07/04 06:33:05;;;;;;;1.42;0.90;;;17.60;61.60;;;;;;5082391;28;20032;-57
2021/07/04 06:35:32;;;;;;;3.28;0.70;;;17.50;63.90;;;;;;5085271;28;20028;-52
2021/07/04 06:37:59;;;;;;;2.80;1.00;;;17.50;64.90;;;;;;5086159;28;20505;-53
2021/07/04 06:40:27;;;;;;;1.52;0.45;;;17.50;64.20;;;;;;5085256;28;20119;-53
2021/07/04 06:42:54;;;;;;;0.63;0.60;;;17.40;66.50;;;;;;5081335;28;20020;-52
2021/07/04 06:45:22;;;;;;;1.05;0.40;;;17.40;66.80;;;;;;5085328;28;20048;-60
2021/07/04 06:47:51;;;;;;;4.32;0.75;;;17.40;65.80;;;;;;5086401;28;20047;-53
2021/07/04 06:50:20;;;;;;;2.53;0.70;;;17.30;65.00;;;;;;5083689;28;20389;-59
2021/07/04 06:52:48;;;;;;;0.68;0.57;;;17.30;66.20;;;;;;5082351;28;20032;-54
2021/07/04 06:55:17;;;;;;;0.80;0.70;;;17.30;65.80;;;;;;5083914;28;20032;-49
2021/07/04 06:57:45;;;;;;;0.93;0.80;;;17.30;65.00;;;;;;5085396;28;20035;-56
2021/07/04 07:00:15;;;;;;;1.75;0.93;;;17.20;67.60;;;;;;5084899;28;20038;-56
2021/07/04 07:02:43;;;;;;;2.08;0.95;;;17.20;66.50;;;;;;5077953;28;20036;-58
2021/07/04 07:05:13;;;;;;;1.77;1.10;;;17.20;66.10;;;;;;5082945;28;20478;-54
2021/07/04 07:07:41;;;;;;;1.02;0.70;;;17.10;66.20;;;;;;5083670;28;20059;-59
2021/07/04 07:10:11;;;;;;;2.58;0.82;;;17.10;66.00;;;;;;5085999;28;20122;-58
2021/07/04 07:12:39;;;;;;;1.13;0.63;;;17.10;67.40;;;;;;5079289;28;20032;-58
2021/07/04 07:15:08;;;;;;;1.58;0.70;;;17.00;67.60;;;;;;5086592;28;20044;-58
2021/07/04 07:17:35;;;;;;;1.33;0.85;;;17.00;67.40;;;;;;5090408;28;20028;-60
2021/07/04 07:20:05;;;;;;;1.27;0.88;;;16.90;67.70;;;;;;5086509;28;20035;-57
2021/07/04 07:22:33;;;;;;;1.90;1.20;;;16.90;68.90;;;;;;5086124;28;20024;-57
2021/07/04 07:25:00;;;;;;;0.98;0.73;;;16.90;67.70;;;;;;5090140;28;20040;-53
2021/07/04 07:27:27;;;;;;;1.00;0.85;;;16.80;68.10;;;;;;5089682;28;20054;-55
2021/07/04 07:29:55;;;;;;;1.33;1.02;;;16.80;68.30;;;;;;5090505;28;20038;-59
2021/07/04 07:32:22;;;;;;;1.98;0.90;;;16.80;68.30;;;;;;5084103;28;20038;-59
2021/07/04 07:34:49;;;;;;;2.38;0.93;;;16.70;69.20;;;;;;5087364;28;20791;-56
2021/07/04 07:37:18;;;;;;;1.85;0.82;;;16.70;69.20;;;;;;5089407;28;20028;-60
2021/07/04 07:39:45;;;;;;;1.38;0.90;;;16.70;69.20;;;;;;5089789;28;20483;-59
2021/07/04 07:42:13;;;;;;;2.47;1.33;;;16.60;70.00;;;;;;5080130;28;20394;-58
2021/07/04 07:44:42;;;;;;;1.50;1.13;;;16.50;70.00;;;;;;5089673;28;20075;-60
2021/07/04 07:47:10;;;;;;;2.78;1.25;;;16.50;69.60;;;;;;5087450;28;20026;-56
2021/07/04 07:49:37;;;;;;;1.30;0.90;;;16.50;70.40;;;;;;5087629;28;20024;-58
2021/07/04 07:52:05;;;;;;;2.05;1.02;;;16.40;70.90;;;;;;5085012;28;20028;-55
2021/07/04 07:54:33;;;;;;;2.38;0.93;;;16.40;70.90;;;;;;5089792;28;20024;-57
2021/07/04 07:57:03;;;;;;;4.13;1.50;;;16.40;70.40;;;;;;5086990;28;20201;-55
2021/07/04 07:59:31;;;;;;;3.10;1.17;;;16.30;71.10;;;;;;5088438;28;20056;-56
2021/07/04 08:02:02;;;;;;;2.55;1.40;;;16.30;71.50;;;;;;5083467;28;20073;-58
2021/07/04 08:04:29;;;;;;;1.73;1.30;;;16.20;71.90;;;;;;5089260;28;20081;-59
2021/07/04 08:06:59;;;;;;;2.50;1.50;;;16.20;71.10;;;;;;5086979;28;20475;-56
2021/07/04 08:09:27;;;;;;;2.00;1.20;;;16.20;72.30;;;;;;5086747;28;20032;-58
2021/07/04 08:11:55;;;;;;;3.47;2.00;;;16.10;72.50;;;;;;5080642;28;20036;-55
2021/07/04 08:14:23;;;;;;;2.67;1.50;;;16.10;72.00;;;;;;5073168;28;20055;-61
2021/07/04 08:16:51;;;;;;;2.65;1.42;;;16.10;72.80;;;;;;5085173;28;20074;-59
2021/07/04 08:19:18;;;;;;;5.00;2.35;;;16.00;72.30;;;;;;5081834;28;20129;-57
2021/07/04 08:21:45;;;;;;;2.53;1.58;;;16.00;72.00;;;;;;5071240;28;20078;-58
2021/07/04 08:24:13;;;;;;;2.53;1.88;;;16.00;72.70;;;;;;5086990;28;20128;-60
2021/07/04 08:26:40;;;;;;;2.13;1.55;;;15.90;72.00;;;;;;5086998;28;20043;-55
2021/07/04 08:29:08;;;;;;;2.95;1.73;;;15.90;73.00;;;;;;5086325;28;20024;-56
2021/07/04 08:31:35;;;;;;;5.38;2.15;;;15.90;73.10;;;;;;5088417;28;20103;-55
2021/07/04 08:34:03;;;;;;;2.72;1.80;;;15.90;73.30;;;;;;5085588;28;20199;-55
2021/07/04 08:36:32;;;;;;;7.20;1.92;;;15.80;72.90;;;;;;5086785;28;20040;-59
2021/07/04 08:39:00;;;;;;;2.20;1.40;;;15.80;73.90;;;;;;5085379;28;20169;-54
2021/07/04 08:41:27;;;;;;;3.20;1.70;;;15.80;74.00;;;;;;5088166;28;20040;-55
2021/07/04 08:43:55;;;;;;;3.20;1.85;;;15.80;74.00;;;;;;5084165;28;20673;-53
2021/07/04 08:46:22;;;;;;;2.80;1.70;;;15.70;73.70;;;;;;5087310;28;20426;-56
2021/07/04 08:48:50;;;;;;;3.08;2.17;;;15.70;74.20;;;;;;5084956;28;20043;-56
2021/07/04 08:51:17;;;;;;;3.70;2.05;;;15.80;74.20;;;;;;5084853;28;20036;-52
2021/07/04 08:53:44;;;;;;;3.50;2.17;;;15.80;73.20;;;;;;5078865;28;20039;-48
2021/07/04 08:56:13;;;;;;;4.30;2.03;;;15.80;74.00;;;;;;5087334;28;20028;-53
2021/07/04 08:58:40;;;;;;;2.90;2.13;;;15.70;74.00;;;;;;5083739;28;21239;-53
2021/07/04 09:01:15;;;;;;;3.05;2.08;;;15.80;73.40;;;;;;5086545;28;20150;-53
2021/07/04 09:03:48;;;;;;;3.30;2.25;;;15.70;73.90;;;;;;5081303;28;20036;-53
2021/07/04 09:06:34;;;;;;;3.33;2.05;;;15.70;74.20;;;;;;5082309;28;20115;-51
2021/07/04 09:09:27;;;;;;;3.25;2.35;;;15.70;74.50;;;;;;5085378;28;20127;-50
2021/07/04 09:12:10;;;;;;;5.03;2.92;;;15.70;74.50;;;;;;5083674;28;20079;-57
2021/07/04 09:14:45;;;;;;;3.60;2.45;;;15.70;74.30;;;;;;5081476;28;20055;-58
2021/07/04 09:17:15;;;;;;;3.85;2.35;;;15.70;74.00;;;;;;5087063;28;20043;-55
2021/07/04 09:19:57;;;;;;;4.57;2.22;;;15.70;74.30;;;;;;5085638;28;20028;-58
2021/07/04 09:22:29;;;;;;;2.83;2.40;;;15.60;73.80;;;;;;5085454;28;20509;-51
2021/07/04 09:25:22;;;;;;;;;;;15.60;73.90;;;;;;5083867;28;21019;-49
2021/07/04 09:28:11;;;;;;;4.07;2.50;;;15.70;74.00;;;;;;5084556;28;19920;-58
2021/07/04 09:30:45;;;;;;;3.42;2.15;;;15.60;74.00;;;;;;5088171;28;20036;-55
2021/07/04 09:33:31;;;;;;;2.70;2.20;;;15.60;74.40;;;;;;5088722;28;20490;-55
2021/07/04 09:35:59;;;;;;;3.45;2.35;;;15.60;74.20;;;;;;5085374;28;20106;-51
2021/07/04 09:38:38;;;;;;;3.38;2.13;;;15.60;74.10;;;;;;5089217;28;20038;-56
2021/07/04 09:41:08;;;;;;;3.67;2.58;;;15.60;74.20;;;;;;5088619;28;20027;-52
2021/07/04 09:43:37;;;;;;;3.15;2.67;;;15.60;74.40;;;;;;5087393;28;20036;-54
2021/07/04 09:46:09;;;;;;;3.22;2.20;;;15.60;74.30;;;;;;5086982;28;20039;-51
2021/07/04 09:48:43;;;;;;;;;;;15.50;74.10;;;;;;5089509;28;20024;-52
2021/07/04 09:51:21;;;;;;;3.28;2.47;;;15.50;74.20;;;;;;5088581;28;19918;-54
2021/07/04 09:53:57;;;;;;;3.40;2.83;;;15.50;74.10;;;;;;5083108;28;20028;-57
2021/07/04 09:56:28;;;;;;;2.88;2.47;;;15.50;74.20;;;;;;5086538;28;20500;-61
2021/07/04 09:59:01;;;;;;;4.53;2.67;;;15.50;74.40;;;;;;5088781;28;20021;-53
2021/07/04 10:01:50;;;;;;;3.03;2.72;;;15.50;74.40;;;;;;5083745;28;20028;-59
2021/07/04 10:04:26;;;;;;;4.35;2.67;;;15.40;74.40;;;;;;5083123;28;20363;-58
2021/07/04 10:06:54;;;;;;;3.97;2.85;;;15.40;74.40;;;;;;5083549;28;20082;-54
2021/07/04 10:09:25;;;;;;;3.60;2.75;;;15.40;74.40;;;;;;5085614;28;20031;-61
2021/07/04 10:11:53;;;;;;;3.75;2.85;;;15.30;74.40;;;;;;5087758;28;20111;-51
2021/07/04 10:14:21;;;;;;;4.70;2.60;;;15.30;74.50;;;;;;5082322;28;20031;-57
2021/07/04 10:16:49;;;;;;;4.32;2.70;;;15.30;74.40;;;;;;5088919;28;20035;-56
2021/07/04 10:19:22;;;;;;;2.92;2.58;;;15.30;74.60;;;;;;5088240;28;20082;-55
2021/07/04 10:21:55;;;;;;;3.78;2.60;;;15.30;74.50;;;;;;5084515;28;20549;-56
2021/07/04 10:24:23;;;;;;;2.80;2.45;;;15.30;74.80;;;;;;5083679;28;20040;-52
2021/07/04 10:26:51;;;;;;;3.45;2.38;;;15.30;74.60;;;;;;5087017;28;20048;-53
2021/07/04 10:29:20;;;;;;;4.28;2.67;;;15.30;74.50;;;;;;5085520;28;20034;-54
2021/07/04 10:31:47;;;;;;;2.47;2.22;;;15.20;74.70;;;;;;5087389;28;20030;-56
2021/07/04 10:34:16;;;;;;;4.18;2.53;;;15.20;74.70;;;;;;5083616;28;20024;-54
2021/07/04 10:37:01;;;;;;;3.70;2.75;;;15.20;74.50;;;;;;5088124;28;20024;-55
2021/07/04 10:39:30;;;;;;;3.08;2.60;;;15.20;74.60;;;;;;5085340;28;20079;-54
2021/07/04 10:42:09;;;;;;;4.15;2.80;;;15.20;74.80;;;;;;5086100;28;20543;-57
2021/07/04 10:44:47;;;;;;;4.25;2.95;;;15.20;74.50;;;;;;5082723;28;20127;-55
2021/07/04 10:47:27;;;;;;;4.32;2.53;;;15.10;74.60;;;;;;5083885;28;20084;-58
2021/07/04 10:50:08;;;;;;;4.78;2.50;;;15.10;74.60;;;;;;5087981;28;20032;-52
2021/07/04 10:52:36;;;;;;;3.97;2.72;;;15.10;74.60;;;;;;5090951;28;20036;-53
2021/07/04 10:55:12;;;;;;;3.15;2.47;;;15.10;74.80;;;;;;5088920;28;20048;-52
2021/07/04 10:57:54;;;;;;;3.53;2.50;;;15.10;75.00;;;;;;5093333;28;20027;-59
2021/07/04 11:00:41;;;;;;;4.57;2.92;;;15.10;75.20;;;;;;5091952;28;20034;-59
2021/07/04 11:03:28;;;;;;;3.42;2.60;;;15.00;75.30;;;;;;5093727;28;20272;-60
2021/07/04 11:05:56;;;;;;;3.95;2.92;;;15.00;75.20;;;;;;5088761;28;20051;-58
2021/07/04 11:08:26;;;;;;;3.33;2.53;;;15.00;75.20;;;;;;5092433;28;20035;-57
2021/07/04 11:11:06;;;;;;;3.53;2.60;;;15.00;75.30;;;;;;5091049;28;20548;-60
2021/07/04 11:13:46;;;;;;;4.25;2.60;;;15.00;75.20;;;;;;5089196;28;20036;-60
2021/07/04 11:16:23;;;;;;;5.75;2.75;;;15.00;75.20;;;;;;5091888;28;20469;-60
2021/07/04 11:18:54;;;;;;;4.40;3.33;;;15.00;75.30;;;;;;5091487;28;20057;-57
2021/07/04 11:21:51;;;;;;;3.53;2.83;;;14.90;75.30;;;;;;5090373;28;20051;-61
2021/07/04 11:24:24;;;;;;;5.82;2.80;;;14.90;75.20;;;;;;5089195;28;20139;-54
2021/07/04 11:27:16;;;;;;;5.40;3.08;;;14.90;75.20;;;;;;5093803;28;20367;-54
2021/07/04 11:30:27;;;;;;;4.67;2.97;;;14.90;75.20;;;;;;5091889;28;20081;-52
2021/07/04 11:33:20;;;;;;;3.40;3.08;;;14.80;75.10;;;;;;5089715;28;20455;-59
2021/07/04 11:35:48;;;;;;;5.53;2.65;;;14.80;75.10;;;;;;5086703;28;20047;-55
2021/07/04 11:38:22;;;;;;;4.93;3.20;;;14.80;75.30;;;;;;5090802;28;20052;-48
2021/07/04 11:40:51;;;;;;;9.27;3.13;;;14.80;75.20;;;;;;5090428;28;20028;-53
2021/07/04 11:43:23;;;;;;;3.58;2.55;;;14.80;75.20;;;;;;5089947;28;20545;-57
2021/07/04 11:45:58;;;;;;;4.35;3.13;;;14.80;75.10;;;;;;5086973;28;20097;-60
2021/07/04 11:48:47;;;;;;;4.10;2.90;;;14.80;74.90;;;;;;5091003;28;20024;-53
2021/07/04 11:51:42;;;;;;;4.68;3.05;;;14.70;74.90;;;;;;5088725;28;20539;-56
2021/07/04 11:54:11;;;;;;;5.22;3.35;;;14.70;74.70;;;;;;5084289;28;20040;-60
2021/07/04 11:56:41;;;;;;;3.90;3.15;;;14.70;75.10;;;;;;5089855;28;20088;-54
2021/07/04 11:59:26;;;;;;;4.95;3.20;;;14.70;75.00;;;;;;5088858;28;20031;-49
2021/07/04 12:02:03;;;;;;;4.82;2.95;;;14.70;75.00;;;;;;5085602;28;20037;-49
2021/07/04 12:04:39;;;;;;;4.68;3.03;;;14.70;75.00;;;;;;5082100;28;20370;-56
2021/07/04 12:07:09;;;;;;;3.90;2.92;;;14.70;74.90;;;;;;5088616;28;20028;-53
2021/07/04 12:09:52;;;;;;;4.72;3.30;;;14.70;74.90;;;;;;5086186;28;20372;-57
2021/07/04 12:12:23;;;;;;;3.50;2.72;;;14.60;74.70;;;;;;5086640;28;20039;-55
2021/07/04 12:15:13;;;;;;;5.05;3.60;;;14.60;74.90;;;;;;5084151;28;20032;-59
2021/07/04 12:17:49;;;;;;;4.13;2.90;;;14.60;74.80;;;;;;5090364;28;20031;-57
2021/07/04 12:20:25;;;;;;;4.32;3.15;;;14.60;74.90;;;;;;5087202;28;20036;-56
2021/07/04 12:22:55;;;;;;;7.15;3.05;;;14.50;74.80;;;;;;5084324;28;20029;-57
2021/07/04 12:25:41;;;;;;;4.20;3.10;;;14.50;75.00;;;;;;5081460;28;20040;-62
2021/07/04 12:28:17;;;;;;;5.65;3.42;;;14.50;75.00;;;;;;5089937;28;20075;-59
2021/07/04 12:30:49;;;;;;;5.97;2.97;;;14.40;74.90;;;;;;5074678;28;20443;-55
2021/07/04 12:33:17;;;;;;;;;;;14.40;75.30;;;;;;5083737;28;20109;-55
2021/07/04 12:35:46;;;;;;;4.30;2.80;;;14.30;75.40;;;;;;5089446;28;20336;-58
2021/07/04 12:38:13;;;;;;;4.82;2.90;;;14.30;75.30;;;;;;5084874;28;20017;-56
2021/07/04 12:41:04;;;;;;;9.90;3.25;;;14.30;75.50;;;;;;5079438;28;20035;-54
2021/07/04 12:43:36;;;;;;;3.92;2.63;;;14.30;75.40;;;;;;5082441;28;20071;-55
2021/07/04 12:46:18;;;;;;;6.47;3.00;;;14.30;75.70;;;;;;5073388;28;20098;-57
2021/07/04 12:48:49;;;;;;;3.30;2.75;;;14.30;75.70;;;;;;5083444;28;20108;-52
2021/07/04 12:51:27;;;;;;;3.95;2.70;;;14.20;75.60;;;;;;5072658;28;20032;-51
2021/07/04 12:53:55;;;;;;;6.93;3.13;;;14.20;75.50;;;;;;5081136;28;20082;-57
2021/07/04 12:56:26;;;;;;;5.78;2.92;;;14.20;75.70;;;;;;5082718;28;20053;-56
2021/07/04 12:59:06;;;;;;;4.57;2.50;;;14.20;75.70;;;;;;5083367;28;20020;-56
2021/07/04 13:01:38;;;;;;;6.93;2.80;;;14.20;75.70;;;;;;5089182;28;20032;-52
2021/07/04 13:04:11;;;;;;;4.53;2.88;;;14.10;75.50;;;;;;5089149;28;20036;-54
2021/07/04 13:07:02;;;;;;;4.82;3.22;;;14.10;75.70;;;;;;5087620;28;20028;-51